Time;durP1;ratioP1;P1;durP2;ratioP2;P2;SDS_P1;SDS_P2;PMS_P1;PMS_P2;Temp;Humidity;BMP_temperature;BMP_pressure;BME280_temperature;BME280_humidity;BME280_pressure;Samples;Min_cycle;Max_cycle;Signal;HPM_P1;HPM_P2
2024/01/08 00:02:01;;;;;;;13.48;7.82;;;-6.00;69.30;;;;;;4987574;28;114679;-80
2024/01/08 00:04:31;;;;;;;10.43;4.45;;;-6.10;69.20;;;;;;4970720;28;114448;-79
2024/01/08 00:06:59;;;;;;;12.43;6.72;;;-6.20;69.10;;;;;;4988394;28;114412;-80
2024/01/08 00:09:27;;;;;;;13.55;6.53;;;-6.20;69.30;;;;;;4990875;28;115041;-81
2024/01/08 00:11:54;;;;;;;17.77;6.63;;;-6.10;69.60;;;;;;4989309;28;114619;-80
2024/01/08 00:14:21;;;;;;;19.70;7.35;;;-6.00;69.70;;;;;;4987479;28;114413;-80
2024/01/08 00:16:49;;;;;;;12.63;5.55;;;-6.00;69.60;;;;;;4970962;28;114393;-81
2024/01/08 00:19:16;;;;;;;11.55;6.45;;;-6.00;69.80;;;;;;4987284;28;115685;-82
2024/01/08 00:21:44;;;;;;;14.88;7.57;;;-5.90;69.70;;;;;;4987790;28;114637;-80
2024/01/08 00:24:11;;;;;;;17.73;6.40;;;-5.90;69.00;;;;;;4988308;28;114211;-80
2024/01/08 00:26:38;;;;;;;15.13;6.22;;;-6.10;68.80;;;;;;4988349;28;114285;-79
2024/01/08 00:29:06;;;;;;;13.50;4.22;;;-6.10;69.10;;;;;;4986342;28;115015;-80
2024/01/08 00:31:33;;;;;;;9.45;5.32;;;-6.10;69.20;;;;;;4986062;28;115057;-80
2024/01/08 00:34:03;;;;;;;14.75;7.57;;;-6.10;69.40;;;;;;4987434;28;114247;-79
2024/01/08 00:36:34;;;;;;;11.25;5.82;;;-6.10;69.60;;;;;;4988803;28;114512;-80
2024/01/08 00:39:02;;;;;;;16.25;7.95;;;-6.00;69.40;;;;;;4986601;28;115007;-81
2024/01/08 00:41:29;;;;;;;13.05;7.10;;;-5.90;69.60;;;;;;4987529;28;115082;-81
2024/01/08 00:43:57;;;;;;;11.15;6.35;;;-6.00;69.50;;;;;;4986727;28;114577;-80
2024/01/08 00:46:24;;;;;;;14.05;7.10;;;-6.00;69.50;;;;;;4987562;28;114281;-80
2024/01/08 00:48:52;;;;;;;16.38;8.27;;;-5.90;69.40;;;;;;4991043;28;115515;-81
2024/01/08 00:51:19;;;;;;;8.10;3.75;;;-6.00;69.30;;;;;;4998876;28;114717;-80
2024/01/08 00:53:46;;;;;;;11.68;7.28;;;-6.10;69.20;;;;;;4986266;28;114426;-80
2024/01/08 00:56:15;;;;;;;14.32;7.90;;;-6.20;69.70;;;;;;4986433;28;114560;-80
2024/01/08 00:58:43;;;;;;;12.35;7.13;;;-6.20;69.80;;;;;;4969361;28;115397;-80
2024/01/08 01:01:11;;;;;;;16.33;8.10;;;-6.20;69.90;;;;;;4985633;28;114672;-81
2024/01/08 01:03:38;;;;;;;11.70;6.57;;;-6.20;69.80;;;;;;4987659;28;114621;-80
2024/01/08 01:06:06;;;;;;;10.20;5.43;;;-6.10;69.60;;;;;;4987581;28;114417;-80
2024/01/08 01:08:34;;;;;;;13.43;7.95;;;-6.10;69.60;;;;;;4986576;28;115517;-80
2024/01/08 01:11:02;;;;;;;13.55;8.25;;;-6.10;69.50;;;;;;4968775;28;117583;-81
2024/01/08 01:13:29;;;;;;;16.42;6.50;;;-6.10;68.70;;;;;;4970120;28;114336;-80
2024/01/08 01:15:57;;;;;;;9.75;5.78;;;-6.20;68.80;;;;;;4987443;28;114189;-79
2024/01/08 01:18:24;;;;;;;18.08;8.00;;;-6.20;68.90;;;;;;4984707;28;115543;-82
2024/01/08 01:20:51;;;;;;;13.73;7.07;;;-6.20;68.90;;;;;;4986068;28;115742;-81
2024/01/08 01:23:19;;;;;;;15.05;6.40;;;-6.20;68.90;;;;;;5002306;28;114281;-79
2024/01/08 01:25:47;;;;;;;23.63;7.70;;;-6.20;68.80;;;;;;4969618;28;114608;-79
2024/01/08 01:28:14;;;;;;;16.45;8.88;;;-6.20;68.50;;;;;;4984121;28;119644;-79
2024/01/08 01:30:41;;;;;;;13.95;7.82;;;-6.30;68.20;;;;;;4986214;28;114659;-80
2024/01/08 01:33:09;;;;;;;16.08;6.78;;;-6.30;68.20;;;;;;4986645;28;114497;-79
2024/01/08 01:35:36;;;;;;;13.38;6.25;;;-6.40;67.90;;;;;;4987427;28;114514;-81
2024/01/08 01:38:04;;;;;;;8.85;5.47;;;-6.50;67.90;;;;;;4985438;28;115098;-80
2024/01/08 01:40:31;;;;;;;19.48;8.50;;;-6.50;68.10;;;;;;4951921;28;116693;-80
2024/01/08 01:42:58;;;;;;;12.95;6.35;;;-6.50;67.90;;;;;;4968693;28;114371;-81
2024/01/08 01:45:26;;;;;;;6.03;3.88;;;-6.60;67.90;;;;;;4986999;28;114719;-81
2024/01/08 01:47:56;;;;;;;9.73;4.03;;;-6.70;68.20;;;;;;4985995;28;115025;-81
2024/01/08 01:50:24;;;;;;;7.93;4.70;;;-6.70;68.10;;;;;;4985901;28;114582;-80
2024/01/08 01:52:51;;;;;;;14.18;8.02;;;-6.70;68.40;;;;;;4986443;28;114556;-81
2024/01/08 01:55:18;;;;;;;16.10;7.60;;;-6.60;68.00;;;;;;4987252;28;114631;-80
2024/01/08 01:57:46;;;;;;;15.77;6.93;;;-6.70;68.00;;;;;;4985251;28;118951;-83
2024/01/08 02:00:14;;;;;;;10.27;4.65;;;-6.70;67.90;;;;;;4969505;28;114585;-80
2024/01/08 02:02:42;;;;;;;12.00;6.82;;;-6.70;68.10;;;;;;4985280;28;114146;-80
2024/01/08 02:05:10;;;;;;;13.80;6.78;;;-6.70;68.30;;;;;;4985630;28;114430;-81
2024/01/08 02:07:39;;;;;;;10.30;5.63;;;-6.70;68.10;;;;;;4968930;28;115965;-82
2024/01/08 02:10:07;;;;;;;9.38;5.30;;;-6.80;68.00;;;;;;4984690;28;114919;-81
2024/01/08 02:12:34;;;;;;;12.30;5.75;;;-6.70;68.00;;;;;;4986495;28;114424;-81
2024/01/08 02:15:04;;;;;;;12.98;5.43;;;-6.70;68.10;;;;;;4985418;28;114645;-81
2024/01/08 02:17:32;;;;;;;8.55;4.53;;;-6.70;67.90;;;;;;4985498;28;115104;-79
2024/01/08 02:20:00;;;;;;;10.43;6.45;;;-6.80;67.60;;;;;;4985637;28;114814;-80
2024/01/08 02:22:27;;;;;;;13.90;7.93;;;-6.80;67.50;;;;;;4985366;28;114498;-80
2024/01/08 02:24:55;;;;;;;10.68;7.00;;;-6.90;67.70;;;;;;4985671;28;114286;-81
2024/01/08 02:27:22;;;;;;;8.85;5.68;;;-6.90;67.50;;;;;;4985130;28;115124;-81
2024/01/08 02:29:49;;;;;;;6.95;3.65;;;-6.90;67.70;;;;;;4985510;28;114933;-81
2024/01/08 02:32:16;;;;;;;14.55;7.45;;;-6.90;67.80;;;;;;4994904;28;114322;-81
2024/01/08 02:34:44;;;;;;;12.95;7.05;;;-6.90;67.90;;;;;;4987053;28;114451;-79
2024/01/08 02:37:12;;;;;;;14.55;6.30;;;-7.00;67.90;;;;;;4985677;28;115167;-81
2024/01/08 02:39:39;;;;;;;11.77;6.47;;;-7.00;68.10;;;;;;4967900;28;116148;-80
2024/01/08 02:42:07;;;;;;;12.25;5.40;;;-7.00;68.20;;;;;;4986601;28;114196;-80
2024/01/08 02:44:34;;;;;;;13.13;7.20;;;-6.90;68.10;;;;;;4986264;28;114222;-81
2024/01/08 02:47:01;;;;;;;8.82;4.53;;;-7.00;68.10;;;;;;4985339;28;115089;-81
2024/01/08 02:49:29;;;;;;;11.77;5.72;;;-7.00;68.20;;;;;;4968146;28;115288;-81
2024/01/08 02:51:56;;;;;;;11.80;4.82;;;-6.90;68.40;;;;;;4986228;28;114112;-80
2024/01/08 02:54:23;;;;;;;25.60;8.98;;;-6.80;68.40;;;;;;4986014;28;114403;-81
2024/01/08 02:56:51;;;;;;;11.20;6.03;;;-6.80;68.30;;;;;;4983410;28;115579;-80
2024/01/08 02:59:18;;;;;;;9.05;4.53;;;-6.80;68.10;;;;;;4985109;28;115195;-79
2024/01/08 03:01:45;;;;;;;13.30;6.70;;;-6.90;67.80;;;;;;4985954;28;114326;-80
2024/01/08 03:04:15;;;;;;;12.88;5.47;;;-6.90;68.20;;;;;;4986558;28;114385;-81
2024/01/08 03:06:43;;;;;;;12.68;6.80;;;-6.90;68.10;;;;;;4985735;28;115146;-81
2024/01/08 03:09:10;;;;;;;10.40;6.40;;;-6.80;68.30;;;;;;4988016;28;117387;-80
2024/01/08 03:11:37;;;;;;;14.52;7.78;;;-6.80;68.40;;;;;;4988031;28;114671;-81
2024/01/08 03:14:05;;;;;;;14.52;6.82;;;-6.80;68.50;;;;;;4989647;28;114461;-81
2024/01/08 03:16:32;;;;;;;12.60;6.13;;;-6.80;68.50;;;;;;4988066;28;116370;-81
2024/01/08 03:18:59;;;;;;;16.83;7.25;;;-6.70;68.40;;;;;;4988352;28;114620;-81
2024/01/08 03:21:27;;;;;;;11.23;6.60;;;-6.70;68.40;;;;;;4986986;28;114399;-81
2024/01/08 03:23:54;;;;;;;8.13;4.75;;;-6.70;68.40;;;;;;4987996;28;114384;-80
2024/01/08 03:26:24;;;;;;;9.40;4.88;;;-6.70;68.60;;;;;;4988093;28;115175;-80
2024/01/08 03:28:51;;;;;;;13.02;6.45;;;-6.60;68.70;;;;;;4970178;28;116682;-81
2024/01/08 03:31:19;;;;;;;8.27;4.45;;;-6.50;68.20;;;;;;4987769;28;114267;-81
2024/01/08 03:33:46;;;;;;;8.70;4.85;;;-6.60;68.10;;;;;;4988747;28;114681;-80
2024/01/08 03:36:13;;;;;;;10.48;5.18;;;-6.60;68.30;;;;;;4988462;28;116276;-81
2024/01/08 03:38:42;;;;;;;11.18;6.13;;;-6.60;68.50;;;;;;4987831;28;114892;-80
2024/01/08 03:41:09;;;;;;;8.30;3.75;;;-6.60;68.60;;;;;;4990450;28;114124;-81
2024/01/08 03:43:36;;;;;;;9.25;5.00;;;-6.50;68.80;;;;;;4991385;28;114417;-81
2024/01/08 03:46:04;;;;;;;12.02;5.45;;;-6.40;68.70;;;;;;4991058;28;115246;-81
2024/01/08 03:48:31;;;;;;;8.45;4.10;;;-6.30;68.10;;;;;;4990344;28;114655;-81
2024/01/08 03:50:59;;;;;;;15.55;7.35;;;-6.40;68.10;;;;;;4957155;28;114394;-80
2024/01/08 03:53:26;;;;;;;13.75;6.00;;;-6.40;67.90;;;;;;4990576;28;114274;-81
2024/01/08 03:55:53;;;;;;;9.85;6.80;;;-6.40;68.10;;;;;;4988910;28;115279;-81
2024/01/08 03:58:21;;;;;;;16.13;6.30;;;-6.50;68.10;;;;;;4987257;28;115938;-81
2024/01/08 04:00:51;;;;;;;16.85;7.10;;;-6.50;67.60;;;;;;4989979;28;114125;-81
2024/01/08 04:03:19;;;;;;;10.50;5.30;;;-6.60;67.90;;;;;;4989852;28;114423;-80
2024/01/08 04:05:47;;;;;;;17.63;4.80;;;-6.60;68.10;;;;;;4987169;28;115133;-80
2024/01/08 04:08:14;;;;;;;12.23;8.02;;;-6.70;67.50;;;;;;4954234;28;115214;-81
2024/01/08 04:10:44;;;;;;;8.98;5.25;;;-6.80;67.20;;;;;;4988830;28;114453;-81
2024/01/08 04:13:11;;;;;;;10.95;6.13;;;-6.80;67.70;;;;;;4998501;28;114411;-80
2024/01/08 04:15:38;;;;;;;13.38;6.32;;;-6.90;67.80;;;;;;4993062;28;114445;-81
2024/01/08 04:18:05;;;;;;;11.82;5.60;;;-6.90;67.80;;;;;;4986790;28;114853;-80
2024/01/08 04:20:33;;;;;;;9.93;5.18;;;-6.80;67.80;;;;;;4986444;28;114391;-82
2024/01/08 04:23:00;;;;;;;9.13;4.78;;;-6.80;67.80;;;;;;4987053;28;114251;-81
2024/01/08 04:25:28;;;;;;;20.85;7.03;;;-6.90;67.00;;;;;;4987639;28;115913;-82
2024/01/08 04:27:55;;;;;;;8.55;5.22;;;-7.00;67.40;;;;;;4987071;28;115681;-81
2024/01/08 04:30:22;;;;;;;6.20;3.30;;;-7.10;67.30;;;;;;4987829;28;114543;-80
2024/01/08 04:32:51;;;;;;;15.43;7.43;;;-7.00;67.40;;;;;;4986773;28;114344;-81
2024/01/08 04:35:18;;;;;;;6.18;3.78;;;-7.10;67.50;;;;;;4969287;28;115146;-81
2024/01/08 04:37:47;;;;;;;11.95;6.03;;;-7.10;67.20;;;;;;4986868;28;115959;-80
2024/01/08 04:40:15;;;;;;;8.25;5.43;;;-7.20;67.20;;;;;;4988353;28;114306;-80
2024/01/08 04:42:42;;;;;;;17.83;8.10;;;-7.20;66.80;;;;;;4988302;28;114297;-81
2024/01/08 04:45:09;;;;;;;10.60;5.60;;;-7.30;66.80;;;;;;4987470;28;115079;-81
2024/01/08 04:47:37;;;;;;;9.23;4.45;;;-7.40;67.00;;;;;;4985835;28;114591;-80
2024/01/08 04:50:05;;;;;;;7.22;4.50;;;-7.40;67.20;;;;;;4986623;28;114231;-79
2024/01/08 04:52:32;;;;;;;12.02;6.47;;;-7.30;67.40;;;;;;4970481;28;114450;-80
2024/01/08 04:55:00;;;;;;;12.27;5.90;;;-7.30;67.50;;;;;;4968714;28;119042;-80
2024/01/08 04:57:28;;;;;;;15.93;7.45;;;-7.30;67.60;;;;;;4986732;28;114674;-80
2024/01/08 04:59:55;;;;;;;8.80;4.20;;;-7.30;67.50;;;;;;4986800;28;114328;-79
2024/01/08 05:02:23;;;;;;;13.38;5.95;;;-7.30;67.30;;;;;;4953782;28;114486;-80
2024/01/08 05:04:50;;;;;;;8.20;3.38;;;-7.30;66.90;;;;;;4985497;28;115102;-81
2024/01/08 05:07:19;;;;;;;15.52;5.65;;;-7.40;66.60;;;;;;4986541;28;114676;-81
2024/01/08 05:09:47;;;;;;;11.00;6.40;;;-7.50;67.10;;;;;;4986195;28;114441;-79
2024/01/08 05:12:15;;;;;;;8.75;3.40;;;-7.50;67.60;;;;;;4969746;28;114560;-80
2024/01/08 05:14:42;;;;;;;14.25;7.78;;;-7.30;68.00;;;;;;4986515;28;115599;-80
2024/01/08 05:17:09;;;;;;;16.83;5.70;;;-7.20;68.20;;;;;;4986920;28;114758;-81
2024/01/08 05:19:37;;;;;;;18.33;5.32;;;-7.00;68.20;;;;;;4986307;28;114423;-81
2024/01/08 05:22:04;;;;;;;13.57;7.30;;;-6.90;67.60;;;;;;4986052;28;114268;-80
2024/01/08 05:24:31;;;;;;;15.95;8.27;;;-7.00;67.50;;;;;;4985788;28;115054;-80
2024/01/08 05:26:59;;;;;;;14.75;7.93;;;-6.90;67.60;;;;;;4968109;28;117765;-79
2024/01/08 05:29:26;;;;;;;11.18;5.47;;;-7.00;67.40;;;;;;4986553;28;114330;-80
2024/01/08 05:31:53;;;;;;;21.20;9.63;;;-7.10;67.20;;;;;;4988470;28;114460;-81
2024/01/08 05:34:21;;;;;;;23.27;7.07;;;-7.10;67.30;;;;;;4988088;28;115141;-80
2024/01/08 05:36:50;;;;;;;15.85;7.88;;;-7.20;67.10;;;;;;4986489;28;114468;-79
2024/01/08 05:39:18;;;;;;;11.75;5.78;;;-7.20;67.60;;;;;;4937154;28;114491;-81
2024/01/08 05:41:46;;;;;;;13.20;6.15;;;-7.10;67.80;;;;;;4987668;28;114668;-81
2024/01/08 05:44:13;;;;;;;15.05;7.47;;;-7.00;67.80;;;;;;4985925;28;115607;-81
2024/01/08 05:46:44;;;;;;;14.57;8.02;;;-6.90;67.40;;;;;;4984767;28;115018;-80
2024/01/08 05:49:11;;;;;;;12.25;5.70;;;-7.00;67.50;;;;;;4968765;28;114710;-81
2024/01/08 05:51:39;;;;;;;8.18;4.70;;;-7.00;67.10;;;;;;4985666;28;114402;-80
2024/01/08 05:54:06;;;;;;;13.75;7.75;;;-7.00;67.10;;;;;;5000018;28;114990;-80
2024/01/08 05:56:33;;;;;;;16.95;8.27;;;-7.10;67.00;;;;;;4989670;28;114184;-80
2024/01/08 05:59:01;;;;;;;14.05;4.65;;;-7.20;66.90;;;;;;4969100;28;114569;-80
2024/01/08 06:01:28;;;;;;;13.55;5.93;;;-7.30;66.80;;;;;;4969601;28;114325;-80
2024/01/08 06:03:56;;;;;;;25.13;7.60;;;-7.40;66.80;;;;;;4968465;28;115626;-81
2024/01/08 06:06:23;;;;;;;16.98;9.07;;;-7.40;66.90;;;;;;4969219;28;114936;-80
2024/01/08 06:08:51;;;;;;;21.17;8.93;;;-7.50;66.90;;;;;;4987323;28;114736;-81
2024/01/08 06:11:19;;;;;;;19.65;5.95;;;-7.60;66.70;;;;;;4937204;28;114452;-81
2024/01/08 06:13:46;;;;;;;10.40;5.30;;;-7.70;66.50;;;;;;4983238;28;115388;-80
2024/01/08 06:16:15;;;;;;;16.00;8.63;;;-7.80;66.80;;;;;;4984498;28;114756;-81
2024/01/08 06:18:43;;;;;;;16.17;6.00;;;-7.80;66.90;;;;;;4986564;28;114414;-81
2024/01/08 06:21:10;;;;;;;14.77;6.95;;;-7.90;67.30;;;;;;4985540;28;114613;-80
2024/01/08 06:23:37;;;;;;;16.73;8.32;;;-7.90;67.40;;;;;;4985857;28;115117;-81
2024/01/08 06:26:05;;;;;;;10.25;5.95;;;-7.90;67.30;;;;;;4967503;28;117658;-81
2024/01/08 06:28:32;;;;;;;18.38;8.57;;;-7.90;67.30;;;;;;4984491;28;114677;-81
2024/01/08 06:31:03;;;;;;;16.42;8.27;;;-7.90;67.10;;;;;;4936916;28;114315;-81
2024/01/08 06:33:31;;;;;;;15.60;6.57;;;-8.00;66.50;;;;;;4984070;28;115161;-81
2024/01/08 06:35:58;;;;;;;14.23;6.75;;;-8.10;66.70;;;;;;4967860;28;115229;-80
2024/01/08 06:38:26;;;;;;;16.98;9.70;;;-8.20;66.70;;;;;;4984197;28;114288;-80
2024/01/08 06:40:54;;;;;;;16.83;8.52;;;-8.20;67.20;;;;;;4985820;28;114232;-81
2024/01/08 06:43:21;;;;;;;12.77;6.50;;;-8.20;66.90;;;;;;4951019;28;118702;-81
2024/01/08 06:45:49;;;;;;;14.02;6.35;;;-8.30;67.00;;;;;;4967643;28;114779;-81
2024/01/08 06:48:16;;;;;;;15.02;7.60;;;-8.30;67.10;;;;;;4985032;28;114448;-81
2024/01/08 06:50:44;;;;;;;17.27;7.65;;;-8.30;67.30;;;;;;4968955;28;114330;-81
2024/01/08 06:53:11;;;;;;;10.20;5.88;;;-8.30;67.40;;;;;;4967656;28;119285;-81
2024/01/08 06:55:39;;;;;;;10.43;5.10;;;-8.20;67.50;;;;;;4984705;28;115241;-82
2024/01/08 06:58:06;;;;;;;12.18;7.32;;;-8.10;67.70;;;;;;4986006;28;114551;-80
2024/01/08 07:00:33;;;;;;;12.23;6.95;;;-8.10;67.60;;;;;;4984683;28;114920;-80
2024/01/08 07:03:01;;;;;;;8.32;5.07;;;-8.00;67.60;;;;;;4983151;28;116940;-80
2024/01/08 07:05:29;;;;;;;16.38;6.82;;;-7.90;67.40;;;;;;4967257;28;114667;-80
2024/01/08 07:08:04;;;;;;;18.48;8.77;;;-7.90;67.20;;;;;;4984654;28;114503;-81
2024/01/08 07:10:33;;;;;;;17.20;8.55;;;-8.00;67.10;;;;;;4985812;28;114315;-81
2024/01/08 07:13:03;;;;;;;14.82;9.05;;;-7.90;67.00;;;;;;4983509;28;115021;-80
2024/01/08 07:15:46;;;;;;;18.23;8.50;;;-7.90;66.80;;;;;;4984898;28;114742;-81
2024/01/08 07:18:15;;;;;;;13.88;7.00;;;-8.00;66.80;;;;;;4984817;28;114282;-81
2024/01/08 07:20:42;;;;;;;9.25;4.07;;;-8.00;66.90;;;;;;4985042;28;114476;-81
2024/01/08 07:23:11;;;;;;;26.52;6.82;;;-8.00;66.90;;;;;;4967228;28;115129;-81
2024/01/08 07:25:39;;;;;;;11.65;6.22;;;-8.00;67.00;;;;;;4984977;28;114790;-80
2024/01/08 07:28:08;;;;;;;14.05;4.78;;;-8.00;67.10;;;;;;4984373;28;114428;-81
2024/01/08 07:30:36;;;;;;;8.32;5.65;;;-7.90;67.00;;;;;;4984491;28;114768;-80
2024/01/08 07:33:04;;;;;;;11.70;5.60;;;-7.90;66.80;;;;;;4983102;28;115518;-81
2024/01/08 07:35:31;;;;;;;12.05;5.35;;;-7.90;67.00;;;;;;4974874;28;114609;-82
2024/01/08 07:38:02;;;;;;;17.88;7.13;;;-7.90;67.10;;;;;;4973725;28;114219;-80
2024/01/08 07:40:30;;;;;;;15.15;7.15;;;-7.90;67.00;;;;;;4985209;28;114412;-81
2024/01/08 07:42:57;;;;;;;13.00;6.35;;;-7.90;67.10;;;;;;4984772;28;115178;-80
2024/01/08 07:45:26;;;;;;;11.93;5.88;;;-7.80;66.90;;;;;;4985214;28;115967;-81
2024/01/08 07:47:57;;;;;;;16.58;7.82;;;-7.80;66.50;;;;;;4968292;28;114705;-79
2024/01/08 07:50:26;;;;;;;12.18;6.80;;;-7.90;66.50;;;;;;4953196;28;114434;-79
2024/01/08 07:52:53;;;;;;;17.20;9.82;;;-7.90;66.50;;;;;;4966904;28;115621;-81
2024/01/08 07:55:21;;;;;;;20.02;8.60;;;-7.90;66.50;;;;;;4986646;28;114838;-81
2024/01/08 07:57:48;;;;;;;17.10;7.90;;;-8.00;66.10;;;;;;4988842;28;114284;-81
2024/01/08 08:00:16;;;;;;;12.45;7.03;;;-8.10;66.00;;;;;;4988374;28;114667;-80
2024/01/08 08:02:47;;;;;;;9.52;7.00;;;-8.20;66.40;;;;;;4970718;28;115713;-80
2024/01/08 08:05:16;;;;;;;30.55;14.82;;;-8.10;66.60;;;;;;4986085;28;115757;-79
2024/01/08 08:07:43;;;;;;;15.43;7.07;;;-8.00;66.80;;;;;;4988596;28;114303;-80
2024/01/08 08:10:10;;;;;;;11.80;7.07;;;-7.90;67.00;;;;;;4989290;28;114205;-81
2024/01/08 08:12:38;;;;;;;23.30;9.63;;;-7.80;66.40;;;;;;4987472;28;116414;-80
2024/01/08 08:15:10;;;;;;;18.20;8.75;;;-7.80;66.30;;;;;;4988683;28;114567;-81
2024/01/08 08:17:41;;;;;;;8.63;6.10;;;-7.90;66.30;;;;;;4971148;28;114414;-80
2024/01/08 08:20:10;;;;;;;16.50;7.82;;;-7.80;66.40;;;;;;4987608;28;114892;-80
2024/01/08 08:22:41;;;;;;;26.42;6.22;;;-7.80;66.20;;;;;;4987502;28;115195;-81
2024/01/08 08:25:11;;;;;;;20.15;7.68;;;-7.80;66.30;;;;;;4970433;28;117810;-81
2024/01/08 08:27:38;;;;;;;17.75;8.93;;;-7.80;66.40;;;;;;4987537;28;114425;-81
2024/01/08 08:30:08;;;;;;;17.27;8.98;;;-7.70;66.40;;;;;;4988304;28;114544;-81
2024/01/08 08:32:35;;;;;;;18.55;9.43;;;-7.70;66.20;;;;;;4987307;28;115562;-81
2024/01/08 08:35:04;;;;;;;15.30;9.77;;;-7.80;65.90;;;;;;4953772;28;116858;-81
2024/01/08 08:37:31;;;;;;;16.75;8.20;;;-7.80;66.00;;;;;;4970731;28;114803;-81
2024/01/08 08:40:18;;;;;;;19.83;8.80;;;-7.80;65.80;;;;;;4986996;28;114347;-80
2024/01/08 08:42:49;;;;;;;8.93;4.10;;;-7.80;65.60;;;;;;4986918;28;115249;-80
2024/01/08 08:45:17;;;;;;;19.73;8.00;;;-7.90;65.70;;;;;;4987290;28;114853;-81
2024/01/08 08:47:45;;;;;;;18.25;7.57;;;-7.90;66.10;;;;;;4986346;28;114391;-83
2024/01/08 08:50:13;;;;;;;15.10;9.77;;;-7.90;66.20;;;;;;4987741;28;114309;-81
2024/01/08 08:52:43;;;;;;;12.32;5.47;;;-7.90;66.10;;;;;;4988901;28;115252;-81
2024/01/08 08:55:12;;;;;;;15.63;7.63;;;-7.90;65.50;;;;;;4986035;28;115880;-81
2024/01/08 08:57:41;;;;;;;13.18;6.43;;;-7.80;65.60;;;;;;4987847;28;114567;-81
2024/01/08 09:00:09;;;;;;;9.43;4.93;;;-7.90;65.90;;;;;;4987141;28;114325;-81
2024/01/08 09:02:39;;;;;;;10.57;4.72;;;-7.80;65.50;;;;;;4953917;28;115266;-80
2024/01/08 09:05:09;;;;;;;11.80;6.03;;;-7.80;65.80;;;;;;4968632;28;115157;-80
2024/01/08 09:07:37;;;;;;;12.23;6.45;;;-7.80;65.50;;;;;;4986666;28;114384;-82
2024/01/08 09:10:05;;;;;;;15.40;7.32;;;-7.80;65.60;;;;;;4986389;28;114521;-79
2024/01/08 09:12:33;;;;;;;12.00;6.18;;;-7.80;65.50;;;;;;4986777;28;115103;-81
2024/01/08 09:15:00;;;;;;;17.45;6.80;;;-7.70;65.60;;;;;;4985497;28;114766;-80
2024/01/08 09:17:29;;;;;;;8.68;5.45;;;-7.70;65.50;;;;;;4989582;28;114161;-81
2024/01/08 09:19:57;;;;;;;13.77;5.43;;;-7.60;65.30;;;;;;4992785;28;114556;-80
2024/01/08 09:22:25;;;;;;;11.15;4.55;;;-7.70;65.30;;;;;;4989076;28;116476;-81
2024/01/08 09:24:52;;;;;;;12.60;5.90;;;-7.60;65.40;;;;;;4969704;28;117587;-81
2024/01/08 09:27:20;;;;;;;11.32;7.50;;;-7.50;65.50;;;;;;4969870;28;114570;-80
2024/01/08 09:29:48;;;;;;;14.60;6.53;;;-7.40;65.60;;;;;;4987674;28;114434;-81
2024/01/08 09:32:15;;;;;;;10.68;5.25;;;-7.40;65.40;;;;;;4986175;28;114556;-81
2024/01/08 09:34:43;;;;;;;10.57;5.65;;;-7.40;65.10;;;;;;4988570;28;114524;-81
2024/01/08 09:37:10;;;;;;;14.13;5.85;;;-7.30;65.20;;;;;;4987222;28;114689;-80
2024/01/08 09:39:37;;;;;;;9.40;4.97;;;-7.30;64.90;;;;;;4987603;28;114277;-80
2024/01/08 09:42:05;;;;;;;12.77;5.97;;;-7.30;64.70;;;;;;4985136;28;115379;-80
2024/01/08 09:44:33;;;;;;;17.00;8.85;;;-7.30;64.50;;;;;;4968380;28;115864;-81
2024/01/08 09:47:02;;;;;;;15.02;6.65;;;-7.30;64.30;;;;;;4936960;28;114465;-81
2024/01/08 09:49:33;;;;;;;10.43;6.80;;;-7.30;64.40;;;;;;4970095;28;114456;-81
2024/01/08 09:52:01;;;;;;;16.95;7.20;;;-7.30;63.50;;;;;;4953217;28;115318;-81
2024/01/08 09:54:29;;;;;;;7.32;4.65;;;-7.50;63.50;;;;;;4968322;28;114630;-81
2024/01/08 09:57:01;;;;;;;11.65;6.15;;;-7.60;63.90;;;;;;4986265;28;114265;-79
2024/01/08 09:59:28;;;;;;;14.82;7.53;;;-7.60;63.60;;;;;;4986773;28;114632;-79
2024/01/08 10:01:56;;;;;;;13.20;5.60;;;-7.70;63.00;;;;;;4984498;28;115434;-80
2024/01/08 10:04:27;;;;;;;18.33;8.55;;;-7.70;63.70;;;;;;4984154;28;115983;-80
2024/01/08 10:07:04;;;;;;;17.10;8.00;;;-7.70;63.50;;;;;;4985429;28;114401;-80
2024/01/08 10:09:35;;;;;;;15.57;5.90;;;-7.80;63.80;;;;;;4985518;28;114328;-80
2024/01/08 10:12:02;;;;;;;7.05;5.75;;;-7.80;63.50;;;;;;4984340;28;115022;-81
2024/01/08 10:14:30;;;;;;;9.95;5.97;;;-7.80;63.20;;;;;;4952450;28;114679;-80
2024/01/08 10:16:58;;;;;;;15.65;8.88;;;-7.80;63.50;;;;;;4935430;28;114356;-80
2024/01/08 10:19:29;;;;;;;13.98;6.35;;;-7.80;63.90;;;;;;4986114;28;114501;-81
2024/01/08 10:22:11;;;;;;;9.65;6.60;;;-7.60;64.40;;;;;;4983735;28;114969;-80
2024/01/08 10:24:43;;;;;;;14.98;6.90;;;-7.50;64.10;;;;;;4985549;28;114737;-80
2024/01/08 10:27:11;;;;;;;13.18;5.60;;;-7.40;63.90;;;;;;4984827;28;114445;-81
2024/01/08 10:29:40;;;;;;;10.32;5.15;;;-7.40;63.60;;;;;;4952929;28;114554;-81
2024/01/08 10:32:12;;;;;;;10.68;4.53;;;-7.40;63.80;;;;;;4968596;28;115113;-80
2024/01/08 10:34:41;;;;;;;17.20;9.55;;;-7.40;63.60;;;;;;4984018;28;114596;-80
2024/01/08 10:37:09;;;;;;;11.55;6.25;;;-7.30;63.80;;;;;;4953294;28;114387;-80
2024/01/08 10:39:36;;;;;;;11.25;6.00;;;-7.30;63.40;;;;;;4968867;28;114598;-81
2024/01/08 10:42:17;;;;;;;14.75;6.60;;;-7.40;62.90;;;;;;4984020;28;115198;-81
2024/01/08 10:44:45;;;;;;;15.23;7.03;;;-7.40;63.30;;;;;;4985417;28;114543;-80
2024/01/08 10:47:19;;;;;;;9.00;4.40;;;-7.40;63.60;;;;;;4985523;28;114589;-79
2024/01/08 10:49:51;;;;;;;13.93;7.35;;;-7.40;63.70;;;;;;4984454;28;114493;-80
2024/01/08 10:52:26;;;;;;;9.18;5.15;;;-7.30;63.70;;;;;;4983734;28;115778;-80
2024/01/08 10:54:56;;;;;;;10.73;4.43;;;-7.30;63.70;;;;;;4983790;28;114635;-80
2024/01/08 10:58:07;;;;;;;16.90;6.25;;;-7.30;63.30;;;;;;4984672;28;114683;-80
2024/01/08 11:00:34;;;;;;;11.40;5.03;;;-7.20;63.30;;;;;;4991217;28;114437;-80
2024/01/08 11:03:02;;;;;;;11.60;5.70;;;-7.30;63.40;;;;;;4959952;28;117743;-81
2024/01/08 11:05:32;;;;;;;15.32;8.43;;;-7.20;63.70;;;;;;4953338;28;114558;-81
2024/01/08 11:08:00;;;;;;;15.77;6.70;;;-7.20;63.30;;;;;;4985086;28;114279;-80
2024/01/08 11:10:29;;;;;;;11.18;6.15;;;-7.20;63.50;;;;;;4952494;28;114590;-81
2024/01/08 11:12:56;;;;;;;17.08;8.68;;;-7.20;63.10;;;;;;4986486;28;115246;-81
2024/01/08 11:15:28;;;;;;;15.85;7.05;;;-7.20;63.40;;;;;;4967785;28;115977;-81
2024/01/08 11:17:58;;;;;;;10.75;6.55;;;-7.10;63.80;;;;;;4986236;28;114236;-80
2024/01/08 11:20:46;;;;;;;14.75;6.70;;;-6.90;63.50;;;;;;4984741;28;114709;-80
2024/01/08 11:23:42;;;;;;;9.52;4.55;;;-7.00;63.30;;;;;;4984391;28;115030;-80
2024/01/08 11:26:20;;;;;;;14.80;6.22;;;-7.10;63.10;;;;;;4983926;28;114504;-80
2024/01/08 11:29:06;;;;;;;19.42;9.55;;;-7.10;63.20;;;;;;4969040;28;114548;-81
2024/01/08 11:31:46;;;;;;;10.50;7.03;;;-7.00;63.30;;;;;;4940534;28;114229;-80
2024/01/08 11:34:37;;;;;;;16.52;7.38;;;-7.00;63.20;;;;;;4986639;28;115337;-82
2024/01/08 11:37:31;;;;;;;13.00;5.57;;;-7.10;63.00;;;;;;4986694;28;114680;-81
2024/01/08 11:40:03;;;;;;;8.10;4.55;;;-7.20;62.70;;;;;;4988464;28;114063;-81
2024/01/08 11:42:31;;;;;;;11.13;5.93;;;-7.20;63.10;;;;;;4989028;28;114808;-81
2024/01/08 11:45:02;;;;;;;11.82;6.07;;;-7.20;63.10;;;;;;4986925;28;115171;-80
2024/01/08 11:47:31;;;;;;;11.75;5.57;;;-7.20;63.10;;;;;;4970636;28;115795;-80
2024/01/08 11:49:59;;;;;;;12.13;6.38;;;-7.30;63.00;;;;;;4988878;28;114308;-81
2024/01/08 11:52:27;;;;;;;10.43;6.20;;;-7.30;63.10;;;;;;4987743;28;114772;-80
2024/01/08 11:54:55;;;;;;;14.73;6.68;;;-7.20;63.20;;;;;;4938200;28;115633;-81
2024/01/08 11:57:25;;;;;;;8.40;4.97;;;-7.20;63.30;;;;;;4989610;28;115840;-80
2024/01/08 11:59:52;;;;;;;17.35;7.53;;;-7.20;62.60;;;;;;4989475;28;114516;-81
2024/01/08 12:02:24;;;;;;;13.38;6.80;;;-7.30;62.90;;;;;;4987616;28;114308;-81
2024/01/08 12:04:59;;;;;;;14.38;7.05;;;-7.30;62.80;;;;;;4987261;28;115209;-81
2024/01/08 12:07:27;;;;;;;12.75;5.78;;;-7.30;62.90;;;;;;4970417;28;115146;-81
2024/01/08 12:10:06;;;;;;;18.60;8.13;;;-7.20;62.70;;;;;;4987535;28;114588;-81
2024/01/08 12:12:35;;;;;;;9.68;5.18;;;-7.30;62.70;;;;;;4987646;28;114427;-80
2024/01/08 12:15:04;;;;;;;11.35;5.18;;;-7.30;62.90;;;;;;4986147;28;116468;-80
2024/01/08 12:17:31;;;;;;;21.63;9.50;;;-7.30;62.80;;;;;;4986425;28;114637;-80
2024/01/08 12:20:01;;;;;;;14.52;7.47;;;-7.30;62.50;;;;;;4987298;28;114194;-80
2024/01/08 12:22:28;;;;;;;13.65;7.63;;;-7.40;62.40;;;;;;4988855;28;114608;-80
2024/01/08 12:24:56;;;;;;;11.90;6.72;;;-7.40;62.50;;;;;;4987393;28;115017;-80
2024/01/08 12:27:25;;;;;;;11.38;6.50;;;-7.50;62.30;;;;;;4985678;28;116034;-80
2024/01/08 12:29:54;;;;;;;13.15;7.18;;;-7.60;62.40;;;;;;4987822;28;114316;-81
2024/01/08 12:32:22;;;;;;;18.17;7.35;;;-7.70;62.30;;;;;;4970500;28;114345;-81
2024/01/08 12:34:50;;;;;;;10.25;4.30;;;-7.70;62.10;;;;;;4969371;28;115118;-80
2024/01/08 12:37:21;;;;;;;20.90;7.28;;;-7.70;62.40;;;;;;4985447;28;114748;-80